Time;durP1;ratioP1;P1;durP2;ratioP2;P2;SDS_P1;SDS_P2;PMS_P1;PMS_P2;Temp;Humidity;BMP_temperature;BMP_pressure;BME280_temperature;BME280_humidity;BME280_pressure;Samples;Min_cycle;Max_cycle;Signal;HPM_P1;HPM_P2
2022/01/06 00:01:43;;;;;;;15.73;4.50;;;;;;;-5.26;100.00;101327.44;5049739;28;20144;-52
2022/01/06 00:04:09;;;;;;;21.42;5.60;;;;;;;-5.28;100.00;101329.25;5059882;28;20048;-52
2022/01/06 00:06:38;;;;;;;10.57;4.10;;;;;;;-5.34;100.00;101320.00;5053889;28;20091;-49
2022/01/06 00:09:07;;;;;;;14.95;3.88;;;;;;;-5.39;100.00;101323.72;5046018;28;20056;-51
2022/01/06 00:11:32;;;;;;;4.90;3.05;;;;;;;-5.50;100.00;101317.28;5049597;28;20040;-49
2022/01/06 00:14:08;;;;;;;8.90;3.67;;;;;;;-5.55;100.00;101308.88;5056281;28;20044;-52
2022/01/06 00:24:13;;;;;;;9.45;3.70;;;;;;;-5.55;100.00;101308.88;5046179;28;20448;-49
2022/01/06 00:26:38;;;;;;;10.30;3.05;;;;;;;-5.60;100.00;101307.38;5055980;28;20036;-51
2022/01/06 00:29:04;;;;;;;6.38;2.70;;;;;;;-5.63;100.00;101307.53;5053145;28;20033;-49
2022/01/06 00:31:31;;;;;;;10.45;2.95;;;;;;;-5.68;100.00;101307.72;5050604;28;20036;-52
2022/01/06 00:33:57;;;;;;;8.52;2.47;;;;;;;-5.71;100.00;101321.59;5053076;28;20037;-51
2022/01/06 00:36:22;;;;;;;7.68;3.55;;;;;;;-5.71;100.00;101325.94;5050932;28;20037;-52
2022/01/06 00:38:47;;;;;;;4.10;2.78;;;;;;;-5.74;100.00;101326.06;5046838;28;20116;-49
2022/01/06 00:41:13;;;;;;;9.20;2.85;;;;;;;-5.81;100.00;101330.66;5051815;28;20040;-49
2022/01/06 00:43:38;;;;;;;9.27;2.58;;;;;;;-5.85;100.00;101326.53;5057369;28;20401;-53
2022/01/06 00:46:04;;;;;;;5.15;2.42;;;;;;;-5.85;100.00;101323.97;5049136;28;20112;-51
2022/01/06 00:48:29;;;;;;;9.88;3.55;;;;;;;-5.87;100.00;101325.75;5057410;28;20086;-49
2022/01/06 00:50:54;;;;;;;8.95;2.65;;;;;;;-5.90;100.00;101322.47;5051918;28;20082;-50
2022/01/06 00:53:20;;;;;;;9.63;2.30;;;;;;;-5.85;100.00;101336.88;5056373;28;20477;-53
2022/01/06 00:55:45;;;;;;;5.15;2.70;;;;;;;-5.81;100.00;101333.22;5057222;28;20052;-50
2022/01/06 00:58:10;;;;;;;6.25;2.00;;;;;;;-5.80;100.00;101331.53;5058061;28;20036;-52
2022/01/06 01:00:41;;;;;;;11.38;2.00;;;;;;;-5.88;100.00;101338.75;5055704;28;20473;-49
2022/01/06 01:03:14;;;;;;;5.30;3.28;;;;;;;-5.92;100.00;101349.19;5057079;28;20032;-49
2022/01/06 01:05:41;;;;;;;7.32;2.60;;;;;;;-5.89;100.00;101347.38;5059534;28;20511;-46
2022/01/06 01:08:07;;;;;;;6.72;3.35;;;;;;;-5.88;100.00;101349.91;5055765;28;20457;-48
2022/01/06 01:10:33;;;;;;;13.38;2.55;;;;;;;-5.94;100.00;101345.88;5060075;28;20123;-52
2022/01/06 01:12:58;;;;;;;13.43;1.77;;;;;;;-6.00;100.00;101342.72;5054975;28;20481;-49
2022/01/06 01:15:24;;;;;;;12.02;1.98;;;;;;;-6.04;100.00;101342.00;5057042;28;20285;-51
2022/01/06 01:17:51;;;;;;;6.10;2.60;;;;;;;-6.04;100.00;101343.72;5053548;28;20061;-51
2022/01/06 01:20:18;;;;;;;6.75;2.63;;;;;;;-6.08;100.00;101348.19;5061633;28;20495;-52
2022/01/06 01:22:45;;;;;;;8.77;2.40;;;;;;;-6.08;100.00;101343.03;5063750;28;20025;-48
2022/01/06 01:25:11;;;;;;;5.72;1.23;;;;;;;-6.11;100.00;101340.56;5053227;28;20044;-50
2022/01/06 01:27:43;;;;;;;8.20;2.15;;;;;;;-6.18;100.00;101341.72;5066618;28;20039;-52
2022/01/06 01:30:13;;;;;;;8.45;2.08;;;;;;;-6.22;100.00;101340.16;5063787;28;20330;-52
2022/01/06 01:32:40;;;;;;;5.00;2.17;;;;;;;-6.18;100.00;101336.56;5055326;28;20032;-48
2022/01/06 01:35:08;;;;;;;7.18;2.42;;;;;;;-6.18;100.00;101334.81;5053814;28;20044;-53
2022/01/06 01:37:36;;;;;;;9.32;2.47;;;;;;;-6.17;100.00;101344.25;5063967;28;20106;-50
2022/01/06 01:40:03;;;;;;;5.63;1.80;;;;;;;-6.12;100.00;101344.03;5063921;28;20040;-49
2022/01/06 01:42:29;;;;;;;7.07;1.85;;;;;;;-6.13;100.00;101334.63;5060216;28;20033;-48
2022/01/06 01:44:54;;;;;;;3.67;1.73;;;;;;;-6.13;100.00;101341.53;5058566;28;20106;-48
2022/01/06 01:47:38;;;;;;;2.67;1.55;;;;;;;-6.18;100.00;101332.22;5062170;28;20035;-47
2022/01/06 01:50:12;;;;;;;1.27;0.60;;;;;;;-6.26;100.00;101336.03;5061980;28;20111;-49
2022/01/06 01:52:41;;;;;;;6.40;2.10;;;;;;;-6.33;100.00;101332.00;5059514;28;20547;-47
2022/01/06 01:55:07;;;;;;;8.10;1.23;;;;;;;-6.37;100.00;101334.72;5058541;28;20029;-49
2022/01/06 01:57:33;;;;;;;12.73;2.42;;;;;;;-6.38;100.00;101333.03;5058599;28;20059;-50
2022/01/06 01:59:58;;;;;;;7.13;2.05;;;;;;;-6.35;100.00;101332.06;5059323;28;20036;-52
2022/01/06 02:02:24;;;;;;;11.82;2.15;;;;;;;-6.33;100.00;101332.00;5066548;28;20423;-51
2022/01/06 02:04:52;;;;;;;8.75;2.25;;;;;;;-6.38;100.00;101335.59;5058793;28;20032;-50
2022/01/06 02:07:17;;;;;;;4.88;1.50;;;;;;;-6.44;100.00;101335.88;5067310;28;20037;-52
2022/01/06 02:09:43;;;;;;;10.00;2.03;;;;;;;-6.46;100.00;101329.09;5061735;28;20036;-50
2022/01/06 02:12:10;;;;;;;3.15;1.50;;;;;;;-6.44;100.00;101330.69;5066117;28;20406;-51
2022/01/06 02:14:37;;;;;;;2.63;1.38;;;;;;;-6.48;100.00;101324.00;5060271;28;20028;-50
2022/01/06 02:17:03;;;;;;;10.20;2.30;;;;;;;-6.45;100.00;101320.47;5060438;28;20037;-50
2022/01/06 02:19:28;;;;;;;6.43;1.85;;;;;;;-6.43;100.00;101322.06;5063197;28;20564;-50
2022/01/06 02:21:53;;;;;;;3.35;1.63;;;;;;;-6.41;100.00;101316.84;5060527;28;20036;-52
2022/01/06 02:24:19;;;;;;;9.18;1.85;;;;;;;-6.43;100.00;101322.06;5063401;28;20045;-52
2022/01/06 02:26:44;;;;;;;3.95;1.58;;;;;;;-6.50;100.00;101317.22;5052482;28;20407;-53
2022/01/06 02:29:10;;;;;;;3.72;1.95;;;;;;;-6.55;100.00;101319.16;5063417;28;20044;-51
2022/01/06 02:31:43;;;;;;;8.57;1.58;;;;;;;-6.57;100.00;101316.63;5065272;28;20033;-48
2022/01/06 02:34:09;;;;;;;15.55;1.95;;;;;;;-6.59;100.00;101308.09;5054651;28;20041;-50
2022/01/06 02:36:34;;;;;;;5.43;1.27;;;;;;;-6.59;100.00;101314.09;5063740;28;20039;-52
2022/01/06 02:39:00;;;;;;;6.00;1.25;;;;;;;-6.61;100.00;101312.47;5063913;28;20408;-53
2022/01/06 02:41:26;;;;;;;9.32;1.20;;;;;;;-6.63;100.00;101319.44;5064656;28;20046;-52
2022/01/06 02:43:51;;;;;;;5.47;0.98;;;;;;;-6.69;100.00;101330.00;5057212;28;20086;-49
2022/01/06 02:46:16;;;;;;;3.83;1.20;;;;;;;-6.71;100.00;101319.75;5060553;28;20557;-48
2022/01/06 02:48:42;;;;;;;6.22;1.65;;;;;;;-6.73;100.00;101323.28;5060542;28;20461;-48
2022/01/06 02:51:07;;;;;;;4.97;1.73;;;;;;;-6.70;100.00;101323.16;5062740;28;20123;-50
2022/01/06 02:53:32;;;;;;;6.33;1.83;;;;;;;-6.66;100.00;101330.72;5047066;28;20048;-51
2022/01/06 02:55:58;;;;;;;3.37;1.43;;;;;;;-6.68;100.00;101327.34;5054865;28;20142;-49
2022/01/06 02:58:23;;;;;;;2.30;1.47;;;;;;;-6.78;100.00;101322.63;5064158;28;20035;-49
2022/01/06 03:00:50;;;;;;;4.83;1.90;;;;;;;-6.89;100.00;101310.97;5058442;28;20025;-52
2022/01/06 03:03:16;;;;;;;8.03;1.43;;;;;;;-6.94;100.00;101318.06;5048246;28;20024;-50
2022/01/06 03:05:41;;;;;;;1.30;1.17;;;;;;;-6.90;100.00;101316.19;5057138;28;20067;-48
2022/01/06 03:08:07;;;;;;;8.60;1.13;;;;;;;-6.90;100.00;101316.19;5064481;28;20045;-49
2022/01/06 03:10:36;;;;;;;2.90;1.43;;;;;;;-6.85;100.00;101317.69;5061700;28;20754;-49
2022/01/06 03:13:02;;;;;;;13.25;2.47;;;;;;;-6.89;100.00;101310.97;5053567;28;20128;-48
2022/01/06 03:15:27;;;;;;;3.57;1.47;;;;;;;-6.91;100.00;101314.53;5061039;28;20375;-49
2022/01/06 03:17:57;;;;;;;1.63;1.10;;;;;;;-6.91;100.00;101319.69;5059794;28;20072;-51
2022/01/06 03:20:25;;;;;;;7.50;1.37;;;;;;;-6.95;100.00;101318.09;5061301;28;20047;-49
2022/01/06 03:22:55;;;;;;;8.10;1.30;;;;;;;-6.89;100.00;101329.03;5058040;28;20037;-47
2022/01/06 03:25:21;;;;;;;7.93;1.80;;;;;;;-6.85;100.00;101325.41;5058952;28;20029;-52
2022/01/06 03:27:47;;;;;;;2.17;0.90;;;;;;;-6.84;100.00;101326.25;5057074;28;20558;-49
2022/01/06 03:30:16;;;;;;;10.20;1.20;;;;;;;-6.89;100.00;101318.72;5051995;28;20474;-49
2022/01/06 03:32:42;;;;;;;3.50;0.80;;;;;;;-6.81;100.00;101315.84;5061477;28;20036;-47
2022/01/06 03:35:10;;;;;;;6.93;1.50;;;;;;;-6.73;100.00;101320.72;5047900;28;20436;-49
2022/01/06 03:37:36;;;;;;;4.67;1.03;;;;;;;-6.74;100.00;101311.28;5055977;28;20521;-49
2022/01/06 03:40:04;;;;;;;1.60;0.97;;;;;;;-6.68;100.00;101316.22;5052942;28;20082;-48
2022/01/06 03:42:35;;;;;;;6.30;0.93;;;;;;;-6.71;100.00;101306.84;5051668;28;20509;-49
2022/01/06 03:45:02;;;;;;;7.25;2.38;;;;;;;-6.73;100.00;101313.81;5056853;28;20028;-50
2022/01/06 03:47:27;;;;;;;2.53;1.10;;;;;;;-6.76;100.00;101313.06;5051154;28;20463;-51
2022/01/06 03:49:53;;;;;;;3.13;0.60;;;;;;;-6.79;100.00;101308.88;5063996;28;20279;-50
2022/01/06 03:52:18;;;;;;;3.17;1.00;;;;;;;-6.81;100.00;101324.41;5055373;28;20495;-49
2022/01/06 03:54:43;;;;;;;6.77;1.30;;;;;;;-6.86;100.00;101321.16;5048412;28;20039;-48
2022/01/06 03:57:09;;;;;;;8.57;1.40;;;;;;;-6.90;100.00;101311.03;5058750;28;20036;-48
2022/01/06 03:59:35;;;;;;;7.70;1.50;;;;;;;-6.97;100.00;101314.72;5061215;28;20040;-51
2022/01/06 04:02:01;;;;;;;4.77;1.03;;;;;;;-7.07;100.00;101309.09;5060451;28;20047;-51
2022/01/06 04:04:27;;;;;;;5.60;1.40;;;;;;;-7.06;100.00;101303.03;5059546;28;20040;-53
2022/01/06 04:06:52;;;;;;;2.20;1.20;;;;;;;-7.08;100.00;101302.25;5059612;28;20055;-49
2022/01/06 04:09:17;;;;;;;2.83;0.77;;;;;;;-7.11;100.00;101298.06;5059054;28;20136;-50
2022/01/06 04:11:43;;;;;;;8.53;1.20;;;;;;;-7.11;100.00;101294.63;5056652;28;20036;-51
2022/01/06 04:14:08;;;;;;;1.57;0.80;;;;;;;-7.11;100.00;101292.06;5050978;28;20083;-47
2022/01/06 04:16:36;;;;;;;6.13;1.40;;;;;;;-7.15;100.00;101291.34;5062022;28;20478;-46
2022/01/06 04:19:02;;;;;;;3.00;1.00;;;;;;;-7.24;100.00;101286.53;5059718;28;20037;-49
2022/01/06 04:21:28;;;;;;;4.43;1.40;;;;;;;-7.28;100.00;101285.81;5057593;28;20067;-48
2022/01/06 04:23:53;;;;;;;4.87;0.80;;;;;;;-7.31;100.00;101285.91;5065160;28;20124;-52
2022/01/06 04:26:19;;;;;;;7.63;0.80;;;;;;;-7.34;100.00;101285.19;5063568;28;20412;-50
2022/01/06 04:28:44;;;;;;;2.60;0.87;;;;;;;-7.28;100.00;101280.66;5060781;28;20512;-51
2022/01/06 04:31:10;;;;;;;7.00;1.43;;;;;;;-7.22;100.00;101278.75;5059696;28;20056;-48
2022/01/06 04:33:35;;;;;;;4.33;1.70;;;;;;;-7.19;100.00;101276.88;5059688;28;20058;-50
2022/01/06 04:36:02;;;;;;;5.60;0.93;;;;;;;-7.22;100.00;101281.31;5063749;28;20472;-49
2022/01/06 04:38:27;;;;;;;2.80;0.60;;;;;;;-7.26;100.00;101278.84;5068964;28;20028;-48
2022/01/06 04:40:53;;;;;;;2.43;1.00;;;;;;;-7.33;100.00;101272.25;5060207;28;20497;-50
2022/01/06 04:43:19;;;;;;;4.47;1.17;;;;;;;-7.39;100.00;101272.47;5061383;28;20048;-48
2022/01/06 04:45:45;;;;;;;1.93;0.90;;;;;;;-7.41;100.00;101282.00;5059340;28;20048;-49
2022/01/06 04:48:11;;;;;;;4.87;0.60;;;;;;;-7.37;100.00;101285.31;5057027;28;20142;-51
2022/01/06 04:50:36;;;;;;;10.17;1.53;;;;;;;-7.41;100.00;101279.41;5065202;28;20654;-51
2022/01/06 04:53:01;;;;;;;1.33;0.67;;;;;;;-7.51;100.00;101283.22;5059661;28;20043;-48
2022/01/06 04:55:27;;;;;;;3.83;0.73;;;;;;;-7.54;100.00;101285.91;5059475;28;20074;-52
2022/01/06 04:57:52;;;;;;;3.90;0.60;;;;;;;-7.56;100.00;101279.97;5060782;28;20033;-47
2022/01/06 05:00:18;;;;;;;5.83;0.40;;;;;;;-7.56;100.00;101279.97;5061371;28;20037;-53
2022/01/06 05:02:43;;;;;;;1.90;0.57;;;;;;;-7.51;100.00;101278.06;5065958;28;20497;-47
2022/01/06 05:05:09;;;;;;;9.63;1.10;;;;;;;-7.50;100.00;101269.47;5058014;28;20407;-48
2022/01/06 05:07:34;;;;;;;2.00;0.73;;;;;;;-7.46;100.00;101263.28;5065704;28;20452;-51
2022/01/06 05:09:59;;;;;;;1.67;1.10;;;;;;;-7.42;100.00;101266.59;5056344;28;20032;-48
2022/01/06 05:12:25;;;;;;;2.93;0.93;;;;;;;-7.44;100.00;101269.22;5065947;28;20035;-51
2022/01/06 05:14:50;;;;;;;5.13;0.73;;;;;;;-7.44;100.00;101261.50;5062094;28;20110;-49
2022/01/06 05:17:15;;;;;;;4.03;1.20;;;;;;;-7.42;100.00;101259.72;5059377;28;20072;-48
2022/01/06 05:19:41;;;;;;;12.70;1.10;;;;;;;-7.42;100.00;101251.97;5059385;28;20504;-51
2022/01/06 05:22:06;;;;;;;3.03;1.03;;;;;;;-7.44;100.00;101245.19;5066426;28;20032;-51
2022/01/06 05:24:33;;;;;;;1.60;0.67;;;;;;;-7.46;100.00;101245.25;5062477;28;20506;-49
2022/01/06 05:26:58;;;;;;;5.00;0.40;;;;;;;-7.47;100.00;101249.56;5048876;28;20083;-49
2022/01/06 05:29:25;;;;;;;9.10;0.87;;;;;;;-7.47;100.00;101238.44;5066825;28;20099;-49
2022/01/06 05:31:50;;;;;;;6.57;1.30;;;;;;;-7.51;100.00;101245.44;5064933;28;20028;-47
2022/01/06 05:34:16;;;;;;;7.13;1.40;;;;;;;-7.51;100.00;101239.44;5061979;28;20071;-52
2022/01/06 05:36:42;;;;;;;4.83;1.10;;;;;;;-7.55;100.00;101240.44;5059349;28;20032;-46
2022/01/06 05:39:07;;;;;;;6.63;1.10;;;;;;;-7.57;100.00;101237.91;5058359;28;20082;-51
2022/01/06 05:41:33;;;;;;;3.53;1.00;;;;;;;-7.61;100.00;101236.38;5056470;28;20125;-51
2022/01/06 05:43:59;;;;;;;7.77;0.80;;;;;;;-7.65;100.00;101244.25;5059711;28;20115;-48
2022/01/06 05:46:24;;;;;;;1.77;0.50;;;;;;;-7.69;100.00;101244.38;5062380;28;20032;-49
2022/01/06 05:48:50;;;;;;;10.93;1.00;;;;;;;-7.68;100.00;101240.06;5064791;28;20496;-51
2022/01/06 05:51:15;;;;;;;1.47;0.30;;;;;;;-7.71;100.00;101245.31;5056538;28;20041;-52
2022/01/06 05:53:41;;;;;;;5.07;0.87;;;;;;;-7.75;100.00;101251.47;5051083;28;20120;-51
2022/01/06 05:56:06;;;;;;;2.43;1.07;;;;;;;-7.77;100.00;101241.25;5060799;28;20024;-48
2022/01/06 05:58:32;;;;;;;3.23;1.00;;;;;;;-7.79;100.00;101235.31;5057157;28;20116;-53
2022/01/06 06:00:57;;;;;;;1.47;0.60;;;;;;;-7.78;100.00;101238.72;5056940;28;20477;-51
2022/01/06 06:03:27;;;;;;;2.73;0.73;;;;;;;-7.81;100.00;101247.38;5057847;28;20032;-53
2022/01/06 06:05:52;;;;;;;6.73;1.80;;;;;;;-7.81;100.00;101244.81;5055759;28;20020;-48
2022/01/06 06:08:17;;;;;;;8.03;0.97;;;;;;;-7.84;100.00;101250.06;5084481;28;20032;-50
2022/01/06 06:10:43;;;;;;;2.17;0.30;;;;;;;-7.84;100.00;101251.81;5054980;28;20122;-47
2022/01/06 06:13:08;;;;;;;2.87;1.03;;;;;;;-7.84;100.00;101257.81;5085763;28;20061;-48
2022/01/06 06:15:36;;;;;;;3.50;0.63;;;;;;;-7.85;100.00;101253.53;5058645;28;20104;-47
2022/01/06 06:18:03;;;;;;;3.93;0.97;;;;;;;-7.84;100.00;101265.53;5060508;28;20036;-50
2022/01/06 06:20:28;;;;;;;3.70;0.60;;;;;;;-7.86;100.00;101262.16;5063915;28;20517;-48
2022/01/06 06:22:53;;;;;;;2.07;0.97;;;;;;;-7.90;100.00;101263.16;5052713;28;20112;-50
2022/01/06 06:25:19;;;;;;;1.60;0.97;;;;;;;-7.94;100.00;101256.44;5058529;28;20150;-49
2022/01/06 06:27:44;;;;;;;6.73;0.80;;;;;;;-7.91;100.00;101248.59;5053073;28;20113;-55
2022/01/06 06:30:10;;;;;;;6.60;1.33;;;;;;;-7.92;100.00;101250.34;5057470;28;20028;-52
2022/01/06 06:32:35;;;;;;;7.07;1.50;;;;;;;-7.90;100.00;101239.97;5057986;28;20075;-49
2022/01/06 06:35:03;;;;;;;3.40;1.23;;;;;;;-7.93;100.00;101233.19;5061565;28;20288;-55
2022/01/06 06:37:28;;;;;;;6.50;1.03;;;;;;;-7.98;100.00;101234.25;5061298;28;20041;-48
2022/01/06 06:39:54;;;;;;;5.17;1.73;;;;;;;-7.96;100.00;101232.47;5059648;28;20470;-49
2022/01/06 06:42:19;;;;;;;6.80;0.87;;;;;;;-8.00;100.00;101234.34;5059305;28;20025;-49
2022/01/06 06:44:45;;;;;;;4.27;1.07;;;;;;;-8.09;100.00;101229.50;5062455;28;20032;-47
2022/01/06 06:47:10;;;;;;;4.53;0.70;;;;;;;-8.15;100.00;101238.28;5054125;28;20033;-49
2022/01/06 06:49:37;;;;;;;4.30;0.87;;;;;;;-8.14;100.00;101236.53;5055316;28;20119;-48
2022/01/06 06:52:03;;;;;;;9.67;0.93;;;;;;;-8.06;100.00;101247.41;5061981;28;20032;-53
2022/01/06 06:54:28;;;;;;;3.17;1.53;;;;;;;-8.00;100.00;101239.47;5056741;28;20033;-47
2022/01/06 06:56:53;;;;;;;3.30;1.13;;;;;;;-7.97;100.00;101238.53;5062929;28;20055;-46
2022/01/06 06:59:19;;;;;;;2.37;1.03;;;;;;;-7.96;100.00;101233.31;5057853;28;20140;-48
2022/01/06 07:01:44;;;;;;;6.33;1.47;;;;;;;-7.94;100.00;101234.09;5058856;28;20799;-50
2022/01/06 07:04:09;;;;;;;5.67;2.13;;;;;;;-7.97;100.00;101226.50;5055732;28;20064;-51
2022/01/06 07:06:35;;;;;;;2.73;1.00;;;;;;;-7.99;100.00;101230.84;5058979;28;20035;-49
2022/01/06 07:09:00;;;;;;;11.80;0.87;;;;;;;-8.03;100.00;101228.44;5055043;28;20173;-48
2022/01/06 07:11:25;;;;;;;2.80;0.80;;;;;;;-8.06;100.00;101233.69;5055109;28;20753;-50
2022/01/06 07:13:51;;;;;;;5.07;0.90;;;;;;;-8.09;100.00;101231.25;5055599;28;20111;-52
2022/01/06 07:16:16;;;;;;;3.97;1.33;;;;;;;-8.09;100.00;101234.66;5059610;28;20025;-50
2022/01/06 07:18:42;;;;;;;2.50;0.77;;;;;;;-8.13;100.00;101233.06;5056582;28;20488;-50
2022/01/06 07:21:07;;;;;;;4.17;0.90;;;;;;;-8.17;100.00;101237.47;5060659;28;20064;-48
2022/01/06 07:23:32;;;;;;;4.20;1.10;;;;;;;-8.20;100.00;101241.91;5052382;28;20133;-50
2022/01/06 07:25:58;;;;;;;2.73;0.77;;;;;;;-8.20;100.00;101241.91;5051826;28;20037;-49
2022/01/06 07:28:23;;;;;;;12.97;0.50;;;;;;;-8.22;100.00;101244.53;5062024;28;20043;-50
2022/01/06 07:30:48;;;;;;;3.40;0.80;;;;;;;-8.21;100.00;101247.94;5063924;28;20044;-53
2022/01/06 07:33:14;;;;;;;0.80;0.63;;;;;;;-8.18;100.00;101246.09;5062470;28;20040;-55
2022/01/06 07:35:39;;;;;;;2.87;0.93;;;;;;;-8.15;100.00;101261.44;5058698;28;20033;-53
2022/01/06 07:38:05;;;;;;;7.17;1.77;;;;;;;-8.15;100.00;101269.16;5053758;28;20037;-49
2022/01/06 07:40:30;;;;;;;8.33;1.13;;;;;;;-8.14;100.00;101263.09;5053313;28;20033;-50
2022/01/06 07:42:55;;;;;;;15.27;1.00;;;;;;;-8.12;100.00;101269.03;5054288;28;20082;-51
2022/01/06 07:45:21;;;;;;;3.63;1.03;;;;;;;-8.16;100.00;101267.50;5056578;28;20568;-53
2022/01/06 07:47:58;;;;;;;5.93;1.37;;;;;;;-8.16;100.00;101264.91;5056053;28;20035;-49
2022/01/06 07:50:28;;;;;;;6.77;1.30;;;;;;;-8.16;100.00;101261.47;5063127;28;20033;-49
2022/01/06 07:52:54;;;;;;;11.63;1.67;;;;;;;-8.17;100.00;101265.78;5062722;28;20141;-53
2022/01/06 07:55:19;;;;;;;2.77;0.50;;;;;;;-8.16;100.00;101272.63;5053783;28;20515;-52
2022/01/06 07:57:45;;;;;;;5.00;1.00;;;;;;;-8.15;100.00;101271.72;5058039;28;20025;-51
2022/01/06 08:00:11;;;;;;;14.40;1.77;;;;;;;-8.16;100.00;101271.78;5057200;28;20041;-53
2022/01/06 08:02:36;;;;;;;1.33;0.57;;;;;;;-8.23;100.00;101278.88;5062476;28;20040;-50
2022/01/06 08:05:01;;;;;;;2.27;1.07;;;;;;;-8.21;100.00;101277.09;5062269;28;20372;-50
2022/01/06 08:07:27;;;;;;;7.57;0.97;;;;;;;-8.17;100.00;101278.66;5052346;28;20051;-52
2022/01/06 08:09:52;;;;;;;3.73;1.00;;;;;;;-8.13;100.00;101269.09;5056714;28;21592;-50
2022/01/06 08:12:17;;;;;;;6.30;1.63;;;;;;;-8.13;100.00;101261.38;5063015;28;20375;-48
2022/01/06 08:14:43;;;;;;;16.73;1.00;;;;;;;-8.15;100.00;101260.59;5060349;28;20032;-53
2022/01/06 08:17:08;;;;;;;2.73;1.50;;;;;;;-8.14;100.00;101255.38;5051082;28;20398;-52
2022/01/06 08:19:34;;;;;;;1.43;0.67;;;;;;;-8.13;100.00;101254.50;5057076;28;20060;-51
2022/01/06 08:21:59;;;;;;;5.00;1.10;;;;;;;-8.11;100.00;101250.13;5058437;28;20069;-49
2022/01/06 08:24:24;;;;;;;2.37;0.60;;;;;;;-8.11;100.00;101252.69;5057667;28;20381;-50
2022/01/06 08:26:50;;;;;;;7.73;0.80;;;;;;;-8.16;100.00;101251.19;5058576;28;20041;-49
2022/01/06 08:29:15;;;;;;;5.90;1.07;;;;;;;-8.16;100.00;101249.47;5061909;28;20075;-50
2022/01/06 08:31:40;;;;;;;4.43;0.57;;;;;;;-8.13;100.00;101249.38;5051725;28;20317;-48
2022/01/06 08:34:06;;;;;;;9.40;1.13;;;;;;;-8.03;100.00;101244.72;5051276;28;20076;-54
2022/01/06 08:36:31;;;;;;;3.60;1.30;;;;;;;-7.96;100.00;101242.78;5061980;28;20028;-51
2022/01/06 08:38:56;;;;;;;1.80;1.03;;;;;;;-7.94;100.00;101233.28;5054230;28;20067;-55
2022/01/06 08:41:22;;;;;;;6.13;2.73;;;;;;;-7.94;100.00;101233.28;5058965;28;20491;-50
2022/01/06 08:43:47;;;;;;;5.33;2.77;;;;;;;-7.90;100.00;101227.09;5061433;28;20041;-53
2022/01/06 08:46:13;;;;;;;11.10;3.27;;;;;;;-7.86;100.00;101231.25;5062393;28;20051;-46
2022/01/06 08:48:38;;;;;;;7.53;2.83;;;;;;;-7.85;100.00;101226.94;5057625;28;20047;-51
2022/01/06 08:51:03;;;;;;;13.03;1.70;;;;;;;-7.84;100.00;101229.47;5054014;28;20033;-49
2022/01/06 08:53:29;;;;;;;5.60;1.07;;;;;;;-7.82;100.00;101219.97;5048976;28;20037;-50
2022/01/06 08:55:54;;;;;;;3.10;1.20;;;;;;;-7.79;100.00;101221.59;5059930;28;20032;-49
2022/01/06 08:58:20;;;;;;;7.60;1.23;;;;;;;-7.80;100.00;101223.31;5058750;28;20032;-53
2022/01/06 09:00:45;;;;;;;6.60;1.33;;;;;;;-7.81;100.00;101219.06;5061837;28;20089;-48
2022/01/06 09:03:11;;;;;;;3.67;1.57;;;;;;;-7.84;100.00;101208.88;5059920;28;20040;-51
2022/01/06 09:05:37;;;;;;;3.87;1.00;;;;;;;-7.80;100.00;101202.72;5060752;28;20148;-50
2022/01/06 09:08:04;;;;;;;1.83;1.03;;;;;;;-7.71;100.00;101193.81;5056059;28;20041;-50
2022/01/06 09:10:31;;;;;;;4.73;1.53;;;;;;;-7.60;100.00;101185.69;5059808;28;20037;-51
2022/01/06 09:12:57;;;;;;;9.63;1.63;;;;;;;-7.46;100.00;101176.56;5060227;28;20036;-49
2022/01/06 09:15:22;;;;;;;5.33;1.90;;;;;;;-7.36;100.00;101174.44;5052261;28;20032;-50
2022/01/06 09:17:48;;;;;;;6.23;2.07;;;;;;;-7.27;100.00;101171.53;5059104;28;20045;-50
2022/01/06 09:20:14;;;;;;;18.90;8.13;;;;;;;-7.12;100.00;101169.25;5058404;28;20033;-49
2022/01/06 09:22:43;;;;;;;5.80;3.10;;;;;;;-6.97;100.00;101153.13;5067854;28;20450;-48
2022/01/06 09:25:11;;;;;;;7.73;1.73;;;;;;;-6.84;100.00;101151.75;5064093;28;20041;-49
2022/01/06 09:27:36;;;;;;;19.45;2.45;;;;;;;-6.72;100.00;101139.25;5062581;28;20028;-52
2022/01/06 09:30:02;;;;;;;9.00;2.85;;;;;;;-6.58;100.00;101142.09;5063264;28;20025;-50
2022/01/06 09:32:28;;;;;;;7.95;1.98;;;;;;;-6.47;100.00;101141.63;5060784;28;20037;-50
2022/01/06 09:34:53;;;;;;;7.15;1.90;;;;;;;-6.34;100.00;101140.19;5064264;28;20094;-52
2022/01/06 09:37:19;;;;;;;5.07;1.48;;;;;;;-6.24;100.00;101135.47;5067030;28;20115;-47
2022/01/06 09:39:47;;;;;;;18.60;2.28;;;;;;;-6.13;100.00;101128.09;5062531;28;20124;-48
2022/01/06 09:42:13;;;;;;;4.50;1.63;;;;;;;-5.98;100.00;101134.31;5066881;28;20032;-49
2022/01/06 09:44:39;;;;;;;5.43;2.25;;;;;;;-5.84;100.00;101121.56;5052718;28;20512;-49
2022/01/06 09:47:08;;;;;;;4.13;1.52;;;;;;;-5.71;100.00;101120.09;5056286;28;20052;-49
2022/01/06 09:49:38;;;;;;;7.45;1.58;;;;;;;-5.50;100.00;101107.94;5058666;28;20039;-47
2022/01/06 09:52:07;;;;;;;5.53;1.38;;;;;;;-5.30;100.00;101109.56;5063824;28;20067;-48
2022/01/06 09:54:34;;;;;;;6.13;2.15;;;;;;;-5.15;100.00;101113.16;5064788;28;20024;-51
2022/01/06 09:57:00;;;;;;;11.00;2.80;;;;;;;-4.98;100.00;101111.47;5065527;28;20110;-48
2022/01/06 09:59:28;;;;;;;6.15;1.30;;;;;;;-4.79;100.00;101109.66;5062337;28;20052;-52
2022/01/06 10:02:03;;;;;;;12.13;2.58;;;;;;;-4.53;100.00;101110.94;5058535;28;20475;-50
2022/01/06 10:04:29;;;;;;;4.32;2.38;;;;;;;-4.33;100.00;101122.84;5065451;28;20037;-49
2022/01/06 10:07:08;;;;;;;7.80;1.42;;;;;;;-4.22;100.00;101115.34;5055936;28;20024;-52
2022/01/06 10:09:36;;;;;;;9.35;2.00;;;;;;;-4.16;100.00;101111.59;5063541;28;20032;-50
2022/01/06 10:12:10;;;;;;;5.07;1.80;;;;;;;-4.09;100.00;101109.53;5056753;28;20449;-50
2022/01/06 10:14:45;;;;;;;5.35;2.03;;;;;;;-4.01;100.00;101108.19;5051287;28;20470;-47
2022/01/06 10:17:14;;;;;;;5.53;2.17;;;;;;;-3.89;100.00;101104.13;5063470;28;20452;-51
2022/01/06 10:19:41;;;;;;;5.97;2.55;;;;;;;-3.81;100.00;101107.13;5056800;28;20029;-50
2022/01/06 10:22:25;;;;;;;5.82;1.95;;;;;;;-3.65;100.00;101101.09;5054110;28;20037;-52
2022/01/06 10:24:50;;;;;;;4.28;2.10;;;;;;;-3.52;100.00;101104.69;5060492;28;20047;-47
2022/01/06 10:27:19;;;;;;;16.85;2.97;;;;;;;-3.37;100.00;101106.44;5062142;28;20029;-51
2022/01/06 10:29:48;;;;;;;6.93;2.63;;;;;;;-3.25;100.00;101098.88;5053581;28;20029;-51
2022/01/06 10:32:19;;;;;;;8.50;2.65;;;;;;;-3.19;100.00;101093.34;5063242;28;20430;-51
2022/01/06 10:34:48;;;;;;;6.07;2.15;;;;;;;-3.13;100.00;101099.00;5064937;28;20052;-48
2022/01/06 10:37:24;;;;;;;5.57;2.70;;;;;;;-3.03;100.00;101094.13;5063181;28;20033;-51
2022/01/06 10:39:52;;;;;;;9.85;3.13;;;;;;;-2.94;100.00;101088.44;5055441;28;20170;-52
2022/01/06 10:42:26;;;;;;;4.47;2.00;;;;;;;-2.84;100.00;101075.72;5057105;28;20031;-48
2022/01/06 10:44:57;;;;;;;6.72;2.58;;;;;;;-2.77;100.00;101071.00;5056583;28;20040;-49
2022/01/06 10:47:50;;;;;;;3.20;1.97;;;;;;;-2.69;100.00;101063.59;5061926;28;20119;-47
2022/01/06 10:50:26;;;;;;;4.57;2.20;;;;;;;-2.61;100.00;101055.34;5058641;28;20048;-49
2022/01/06 10:53:07;;;;;;;3.83;1.92;;;;;;;-2.55;100.00;101053.25;5062841;28;20032;-47
2022/01/06 10:55:34;;;;;;;13.63;2.78;;;;;;;-2.47;100.00;101043.22;5058784;28;20056;-48
2022/01/06 10:58:13;;;;;;;3.90;2.50;;;;;;;-2.39;100.00;101032.38;5053953;28;20041;-47
2022/01/06 11:00:39;;;;;;;7.45;2.42;;;;;;;-2.33;100.00;101023.34;5056146;28;20037;-51
2022/01/06 11:03:16;;;;;;;6.50;2.05;;;;;;;-2.25;100.00;101016.75;5053282;28;20066;-47
2022/01/06 11:05:51;;;;;;;6.63;2.72;;;;;;;-2.23;100.00;101003.69;5064922;28;20478;-47
2022/01/06 11:08:21;;;;;;;8.35;3.03;;;;;;;-2.17;100.00;100992.88;5062715;28;20037;-47
2022/01/06 11:11:13;;;;;;;13.38;6.07;;;;;;;-2.06;100.00;100985.25;5064100;28;20033;-49
2022/01/06 11:13:37;;;;;;;3.92;2.47;;;;;;;-1.94;100.00;100978.44;5050458;28;20111;-49
2022/01/06 11:16:03;;;;;;;10.52;4.18;;;;;;;-1.84;100.00;100978.69;5059903;28;20101;-47
2022/01/06 11:18:29;;;;;;;17.67;5.65;;;;;;;-1.78;100.00;100965.31;5053773;28;20544;-50
2022/01/06 11:21:07;;;;;;;14.23;5.13;;;;;;;-1.72;100.00;100961.47;5052270;28;20441;-50
2022/01/06 11:23:33;;;;;;;8.60;4.13;;;;;;;-1.68;100.00;100962.94;5055098;28;20112;-51